Dades meteomassalio
Diari Summary for Octubre 5, 2017 Units:  Metric    English   Both
« Previous Day
Next Day »
Diari Semanal Mensual Anual Personalitzat
  Maxima: Minima: Mijana:
Temperatura: 28.9 °C 9.4 °C 18.4 °C
Rosada: 16.1 °C 6.8 °C 11.3 °C
Humitat: 92 % 35 % 67 %
Velocitat del vent: 42.6 km/h 0.0 km/h 6.2 km/h
Racha vent: 42.6 km/h - -
Vent:- - WSW
Pressio: 1025.3 hPa 1019.9 hPa -
Pluja: 0.0 mm    
Historical Graphs
 
 
Tabular Data for Octubre 5, 2017
Time Temperature Dew Point Pressure Wind Wind Speed Wind Gust Humidity Rainfall Rate (Hourly) solar Conditions
00:01 14.4 °C 11.8 °C 1025.3 hPa Calm     84 % 0.0 mm 0.0 W/m2 CLR
00:06 13.9 °C 11.2 °C 1025.3 hPa Calm     84 % 0.0 mm 0.0 W/m2 CLR
00:11 13.9 °C 11.2 °C 1025.3 hPa Calm     84 % 0.0 mm 0.0 W/m2 CLR
00:16 13.9 °C 11.2 °C 1025.3 hPa Calm     84 % 0.0 mm 0.0 W/m2 CLR
00:21 13.9 °C 11.2 °C 1025.3 hPa Calm     84 % 0.0 mm 0.0 W/m2 CLR
00:26 13.9 °C 11.2 °C 1025.3 hPa Calm     84 % 0.0 mm 0.0 W/m2 CLR
00:31 13.3 °C 10.5 °C 1024.9 hPa Calm     83 % 0.0 mm 0.0 W/m2 CLR
00:36 13.3 °C 10.3 °C 1024.9 hPa Calm     82 % 0.0 mm 0.0 W/m2 CLR
00:41 13.3 °C 10.7 °C 1024.9 hPa Calm     84 % 0.0 mm 0.0 W/m2 CLR
00:46 13.3 °C 10.7 °C 1024.9 hPa Calm     84 % 0.0 mm 0.0 W/m2 CLR
00:51 13.3 °C 10.7 °C 1024.9 hPa Calm     84 % 0.0 mm 0.0 W/m2 CLR
00:56 13.3 °C 10.7 °C 1024.9 hPa Calm     84 % 0.0 mm 0.0 W/m2 CLR
01:01 13.3 °C 10.9 °C 1024.9 hPa Calm     85 % 0.0 mm 0.0 W/m2 CLR
01:06 13.3 °C 10.9 °C 1024.9 hPa Calm     85 % 0.0 mm 0.0 W/m2 CLR
01:16 13.3 °C 10.9 °C 1024.9 hPa Calm     85 % 0.0 mm 0.0 W/m2 CLR
01:21 13.3 °C 10.9 °C 1024.9 hPa Calm     85 % 0.0 mm 0.0 W/m2 CLR
01:26 12.8 °C 10.3 °C 1025.3 hPa Calm     85 % 0.0 mm 0.0 W/m2 CLR
01:31 12.8 °C 10.3 °C 1025.3 hPa Calm     85 % 0.0 mm 0.0 W/m2 CLR
01:36 12.8 °C 10.5 °C 1025.3 hPa Calm     86 % 0.0 mm 0.0 W/m2 CLR
01:41 12.8 °C 10.5 °C 1025.3 hPa Calm     86 % 0.0 mm 0.0 W/m2 CLR
01:46 13.3 °C 11.2 °C 1024.9 hPa Calm     87 % 0.0 mm 0.0 W/m2 CLR
01:51 12.8 °C 10.7 °C 1025.3 hPa Calm     87 % 0.0 mm 0.0 W/m2 CLR
01:56 12.8 °C 10.8 °C 1025.3 hPa Calm     88 % 0.0 mm 0.0 W/m2 CLR
02:01 12.8 °C 10.7 °C 1024.9 hPa Calm     87 % 0.0 mm 0.0 W/m2 CLR
02:06 12.8 °C 10.7 °C 1024.9 hPa Calm     87 % 0.0 mm 0.0 W/m2 CLR
02:11 12.8 °C 10.7 °C 1024.9 hPa Calm     87 % 0.0 mm 0.0 W/m2 CLR
02:16 12.2 °C 10.1 °C 1024.9 hPa Calm     87 % 0.0 mm 0.0 W/m2 CLR
02:21 12.2 °C 10.1 °C 1024.9 hPa Calm     87 % 0.0 mm 0.0 W/m2 CLR
02:26 12.2 °C 10.3 °C 1024.9 hPa Calm     88 % 0.0 mm 0.0 W/m2 CLR
02:31 12.2 °C 10.3 °C 1024.9 hPa Calm     88 % 0.0 mm 0.0 W/m2 CLR
02:36 12.2 °C 10.3 °C 1024.9 hPa Calm     88 % 0.0 mm 0.0 W/m2 CLR
02:41 12.2 °C 10.3 °C 1025.3 hPa Calm     88 % 0.0 mm 0.0 W/m2 CLR
02:46 12.2 °C 10.3 °C 1024.9 hPa Calm     88 % 0.0 mm 0.0 W/m2 CLR
02:51 12.2 °C 10.3 °C 1024.9 hPa Calm     88 % 0.0 mm 0.0 W/m2 CLR
02:56 12.2 °C 10.3 °C 1024.9 hPa Calm     88 % 0.0 mm 0.0 W/m2 CLR
03:06 12.2 °C 10.3 °C 1024.9 hPa Calm     88 % 0.0 mm 0.0 W/m2 CLR
03:11 12.2 °C 10.4 °C 1024.9 hPa Calm     89 % 0.0 mm 0.0 W/m2 CLR
03:16 11.7 °C 9.9 °C 1024.9 hPa Calm     89 % 0.0 mm 0.0 W/m2 CLR
03:21 11.7 °C 9.9 °C 1024.6 hPa Calm     89 % 0.0 mm 0.0 W/m2 CLR
03:26 11.7 °C 9.9 °C 1024.6 hPa Calm     89 % 0.0 mm 0.0 W/m2 CLR
03:32 11.7 °C 9.9 °C 1024.6 hPa Calm     89 % 0.0 mm 0.0 W/m2 CLR
03:37 11.7 °C 9.9 °C 1024.6 hPa Calm     89 % 0.0 mm 0.0 W/m2 CLR
03:42 11.1 °C 9.4 °C 1024.6 hPa Calm     89 % 0.0 mm 0.0 W/m2 CLR
03:47 11.1 °C 9.4 °C 1024.6 hPa Calm     89 % 0.0 mm 0.0 W/m2 CLR
03:52 11.1 °C 9.4 °C 1024.6 hPa Calm     89 % 0.0 mm 0.0 W/m2 CLR
03:57 11.1 °C 9.4 °C 1024.6 hPa Calm     89 % 0.0 mm 0.0 W/m2 CLR
04:02 11.1 °C 9.4 °C 1024.3 hPa Calm     89 % 0.0 mm 0.0 W/m2 CLR
04:07 11.1 °C 9.4 °C 1024.3 hPa Calm     89 % 0.0 mm 0.0 W/m2 CLR
04:12 11.1 °C 9.4 °C 1024.3 hPa Calm     89 % 0.0 mm 0.0 W/m2 CLR
04:13 11.1 °C 9.4 °C 1024.3 hPa Calm     89 % 0.0 mm 0.0 W/m2 CLR
04:18 11.1 °C 9.4 °C 1024.3 hPa Calm     89 % 0.0 mm 0.0 W/m2 CLR
04:23 11.1 °C 9.4 °C 1024.3 hPa Calm     89 % 0.0 mm 0.0 W/m2 CLR
04:28 11.1 °C 9.6 °C 1024.3 hPa Calm     90 % 0.0 mm 0.0 W/m2 CLR
04:33 11.1 °C 9.6 °C 1024.3 hPa Calm     90 % 0.0 mm 0.0 W/m2 CLR
04:38 11.1 °C 9.6 °C 1024.3 hPa Calm     90 % 0.0 mm 0.0 W/m2 CLR
04:43 10.6 °C 9.0 °C 1024.3 hPa Calm     90 % 0.0 mm 0.0 W/m2 CLR
04:48 10.6 °C 9.0 °C 1024.3 hPa Calm     90 % 0.0 mm 0.0 W/m2 CLR
04:53 10.6 °C 9.0 °C 1024.3 hPa Calm     90 % 0.0 mm 0.0 W/m2 CLR
04:58 10.6 °C 9.0 °C 1023.9 hPa Calm     90 % 0.0 mm 0.0 W/m2 CLR
05:03 10.6 °C 9.0 °C 1023.9 hPa Calm     90 % 0.0 mm 0.0 W/m2 CLR
05:08 10.6 °C 9.2 °C 1023.9 hPa Calm     91 % 0.0 mm 0.0 W/m2 CLR
05:13 10.6 °C 9.2 °C 1023.9 hPa Calm     91 % 0.0 mm 0.0 W/m2 CLR
05:18 10.6 °C 9.2 °C 1023.9 hPa Calm     91 % 0.0 mm 0.0 W/m2 CLR
05:21 10.6 °C 9.2 °C 1023.9 hPa Calm     91 % 0.0 mm 0.0 W/m2 CLR
05:23 10.6 °C 9.2 °C 1023.9 hPa Calm     91 % 0.0 mm 0.0 W/m2 CLR
05:26 10.6 °C 9.2 °C 1023.9 hPa Calm     91 % 0.0 mm 0.0 W/m2 CLR
05:31 10.6 °C 9.2 °C 1023.9 hPa Calm     91 % 0.0 mm 0.0 W/m2 CLR
05:36 10.6 °C 9.2 °C 1023.9 hPa Calm     91 % 0.0 mm 0.0 W/m2 CLR
05:46 10.6 °C 9.2 °C 1023.9 hPa Calm     91 % 0.0 mm 0.0 W/m2 CLR
05:51 10.6 °C 9.2 °C 1023.9 hPa Calm     91 % 0.0 mm 0.0 W/m2 CLR
05:56 10.6 °C 9.2 °C 1023.9 hPa Calm     91 % 0.0 mm 0.0 W/m2 CLR
06:01 10.0 °C 8.6 °C 1023.9 hPa Calm     91 % 0.0 mm 0.0 W/m2 CLR
06:06 10.6 °C 9.2 °C 1023.9 hPa Calm     91 % 0.0 mm 0.0 W/m2 CLR
06:11 10.6 °C 9.2 °C 1024.3 hPa Calm     91 % 0.0 mm 0.0 W/m2 CLR
06:16 10.6 °C 9.2 °C 1024.3 hPa Calm     91 % 0.0 mm 0.0 W/m2 CLR
06:21 10.6 °C 9.2 °C 1024.3 hPa Calm     91 % 0.0 mm 0.0 W/m2 CLR
06:31 10.6 °C 9.2 °C 1024.3 hPa Calm     91 % 0.0 mm 0.0 W/m2 CLR
06:36 10.0 °C 8.6 °C 1024.3 hPa Calm     91 % 0.0 mm 0.0 W/m2 CLR
06:41 10.0 °C 8.6 °C 1024.3 hPa Calm     91 % 0.0 mm 0.0 W/m2 CLR
06:46 10.0 °C 8.6 °C 1024.3 hPa Calm     91 % 0.0 mm 0.0 W/m2 CLR
06:56 10.0 °C 8.6 °C 1024.3 hPa Calm     91 % 0.0 mm 0.0 W/m2 CLR
07:06 10.0 °C 8.6 °C 1024.3 hPa Calm     91 % 0.0 mm 0.0 W/m2 CLR
07:11 9.4 °C 8.1 °C 1024.6 hPa Calm     91 % 0.0 mm 0.0 W/m2 CLR
07:16 9.4 °C 8.1 °C 1024.3 hPa Calm     91 % 0.0 mm 0.0 W/m2 CLR
07:21 9.4 °C 8.1 °C 1024.3 hPa Calm     91 % 0.0 mm 0.0 W/m2 CLR
07:26 9.4 °C 8.1 °C 1024.3 hPa Calm     91 % 0.0 mm 0.0 W/m2 CLR
07:31 9.4 °C 8.1 °C 1024.6 hPa Calm     91 % 0.0 mm 0.0 W/m2 CLR
07:36 9.4 °C 8.1 °C 1024.3 hPa Calm     91 % 0.0 mm 0.0 W/m2 CLR
07:41 9.4 °C 8.1 °C 1024.6 hPa Calm     91 % 0.0 mm 0.0 W/m2 CLR
07:46 9.4 °C 8.2 °C 1024.6 hPa Calm     92 % 0.0 mm 0.0 W/m2 CLR
07:51 9.4 °C 8.2 °C 1024.3 hPa Calm     92 % 0.0 mm 0.0 W/m2 CLR
07:56 9.4 °C 8.2 °C 1024.3 hPa Calm     92 % 0.0 mm 0.0 W/m2 CLR
08:01 9.4 °C 8.2 °C 1024.3 hPa Calm     92 % 0.0 mm 5.0 W/m2 OVC
08:06 9.4 °C 8.2 °C 1024.3 hPa Calm     92 % 0.0 mm 7.0 W/m2 BKN
08:11 9.4 °C 8.2 °C 1024.3 hPa Calm     92 % 0.0 mm 11.0 W/m2 BKN
08:16 9.4 °C 8.2 °C 1024.3 hPa Calm     92 % 0.0 mm 12.0 W/m2 BKN
08:21 9.4 °C 8.1 °C 1024.3 hPa Calm     91 % 0.0 mm 18.0 W/m2 BKN
08:26 9.4 °C 8.2 °C 1024.6 hPa Calm     92 % 0.0 mm 21.0 W/m2 BKN
08:31 10.0 °C 8.8 °C 1024.6 hPa Calm     92 % 0.0 mm 23.0 W/m2 BKN
08:36 10.0 °C 8.8 °C 1024.6 hPa Calm     92 % 0.0 mm 32.0 W/m2 BKN
08:41 10.0 °C 8.8 °C 1024.6 hPa Calm     92 % 0.0 mm 35.0 W/m2 BKN
08:46 10.6 °C 9.3 °C 1024.6 hPa Calm     92 % 0.0 mm 40.0 W/m2 BKN
08:51 10.6 °C 9.2 °C 1024.6 hPa Calm     91 % 0.0 mm 60.0 W/m2 SCT
08:56 10.6 °C 9.2 °C 1024.6 hPa Calm     91 % 0.0 mm 46.0 W/m2 SCT
09:01 11.1 °C 9.7 °C 1024.6 hPa Calm     91 % 0.0 mm 58.0 W/m2 SCT
09:06 11.1 °C 9.7 °C 1024.6 hPa Calm     91 % 0.0 mm 104.0 W/m2 SCT
09:11 11.1 °C 9.7 °C 1024.6 hPa Calm     91 % 0.0 mm 121.0 W/m2 FEW
09:16 11.7 °C 10.2 °C 1024.6 hPa Calm     91 % 0.0 mm 104.0 W/m2 CLR
09:21 11.7 °C 10.4 °C 1024.6 hPa Calm     92 % 0.0 mm 148.0 W/m2 CLR
09:26 11.7 °C 10.2 °C 1024.6 hPa Calm     91 % 0.0 mm 185.0 W/m2 CLR
09:31 12.2 °C 10.6 °C 1024.6 hPa Calm     90 % 0.0 mm 200.0 W/m2 CLR
09:36 12.2 °C 10.4 °C 1024.6 hPa Calm     89 % 0.0 mm 195.0 W/m2 CLR
09:41 12.8 °C 10.8 °C 1024.6 hPa Calm     88 % 0.0 mm 211.0 W/m2 CLR
09:46 12.8 °C 10.3 °C 1024.3 hPa Calm     85 % 0.0 mm 229.0 W/m2 CLR
09:51 12.8 °C 10.2 °C 1024.3 hPa Calm     84 % 0.0 mm 255.0 W/m2 CLR
09:56 13.3 °C 10.7 °C 1024.6 hPa Calm     84 % 0.0 mm 276.0 W/m2 CLR
10:01 13.9 °C 10.9 °C 1024.6 hPa Calm     82 % 0.0 mm 281.0 W/m2 CLR
10:06 13.9 °C 10.7 °C 1024.6 hPa Calm     81 % 0.0 mm 299.0 W/m2 CLR
10:11 14.4 °C 11.2 °C 1024.6 hPa Calm     81 % 0.0 mm 325.0 W/m2 CLR
10:16 14.4 °C 11.1 °C 1024.6 hPa Calm     80 % 0.0 mm 339.0 W/m2 CLR
10:21 15.0 °C 11.4 °C 1024.6 hPa Calm     79 % 0.0 mm 350.0 W/m2 CLR
10:26 15.6 °C 11.7 °C 1024.6 hPa Calm     78 % 0.0 mm 367.0 W/m2 CLR
10:31 16.7 °C 12.6 °C 1024.6 hPa Calm     77 % 0.0 mm 385.0 W/m2 CLR
10:36 17.2 °C 12.7 °C 1024.3 hPa Calm     75 % 0.0 mm 401.0 W/m2 CLR
10:46 18.3 °C 13.4 °C 1024.6 hPa Calm     73 % 0.0 mm 425.0 W/m2 CLR
10:51 18.3 °C 13.6 °C 1024.6 hPa Calm     74 % 0.0 mm 438.0 W/m2 CLR
10:56 18.9 °C 13.7 °C 1024.3 hPa Calm     72 % 0.0 mm 452.0 W/m2 CLR
11:02 18.9 °C 13.7 °C 1024.3 hPa Calm     72 % 0.0 mm 461.0 W/m2 CLR
11:07 19.4 °C 13.8 °C 1024.3 hPa Calm     70 % 0.0 mm 475.0 W/m2 CLR
11:12 19.4 °C 13.4 °C 1024.3 hPa Calm     68 % 0.0 mm 487.0 W/m2 CLR
11:17 20.0 °C 13.7 °C 1024.3 hPa Calm     67 % 0.0 mm 499.0 W/m2 CLR
11:22 20.0 °C 13.4 °C 1024.3 hPa Calm     66 % 0.0 mm 510.0 W/m2 CLR
11:27 20.6 °C 14.0 °C 1024.3 hPa Calm     66 % 0.0 mm 520.0 W/m2 CLR
11:32 21.1 °C 13.8 °C 1024.3 hPa Calm     63 % 0.0 mm 533.0 W/m2 CLR
11:37 21.7 °C 14.3 °C 1024.3 hPa Calm     63 % 0.0 mm 545.0 W/m2 CLR
11:42 21.7 °C 14.3 °C 1024.3 hPa Calm     63 % 0.0 mm 554.0 W/m2 CLR
11:47 21.7 °C 14.1 °C 1024.3 hPa NNW 7.4 km/h 7.4 km/h 62 % 0.0 mm 564.0 W/m2 CLR
11:52 22.2 °C 14.6 °C 1024.3 hPa NNW 1.9 km/h 1.9 km/h 62 % 0.0 mm 573.0 W/m2 CLR
11:57 22.2 °C 14.6 °C 1024.3 hPa Calm     62 % 0.0 mm 580.0 W/m2 CLR
12:02 22.8 °C 14.9 °C 1024.3 hPa Calm     61 % 0.0 mm 591.0 W/m2 CLR
12:12 23.3 °C 15.1 °C 1023.9 hPa NNW 13.0 km/h 13.0 km/h 60 % 0.0 mm 605.0 W/m2 CLR
12:17 23.9 °C 15.4 °C 1023.9 hPa West 11.1 km/h 11.1 km/h 59 % 0.0 mm 612.0 W/m2 CLR
12:22 23.9 °C 15.1 °C 1023.9 hPa South 7.4 km/h 7.4 km/h 58 % 0.0 mm 619.0 W/m2 CLR
12:27 24.4 °C 15.7 °C 1023.9 hPa Calm     58 % 0.0 mm 624.0 W/m2 CLR
12:32 24.4 °C 15.7 °C 1023.9 hPa WNW 5.6 km/h 5.6 km/h 58 % 0.0 mm 628.0 W/m2 CLR
12:37 24.4 °C 15.1 °C 1023.9 hPa South 9.3 km/h 9.3 km/h 56 % 0.0 mm 638.0 W/m2 CLR
12:42 24.4 °C 15.4 °C 1023.9 hPa West 12.9 km/h 12.9 km/h 57 % 0.0 mm 643.0 W/m2 CLR
12:47 24.4 °C 15.1 °C 1023.9 hPa West 6.4 km/h 6.4 km/h 56 % 0.0 mm 649.0 W/m2 CLR
12:52 25.0 °C 15.6 °C 1023.9 hPa Calm     56 % 0.0 mm 652.0 W/m2 CLR
12:57 25.6 °C 16.1 °C 1023.9 hPa Calm     56 % 0.0 mm 657.0 W/m2 CLR
13:02 25.6 °C 16.1 °C 1023.6 hPa Calm     56 % 0.0 mm 664.0 W/m2 CLR
13:07 25.6 °C 15.8 °C 1023.6 hPa West 7.4 km/h 7.4 km/h 55 % 0.0 mm 666.0 W/m2 CLR
13:12 25.6 °C 16.1 °C 1023.6 hPa Calm     56 % 0.0 mm 671.0 W/m2 CLR
13:17 25.6 °C 15.8 °C 1023.6 hPa West 11.3 km/h 11.3 km/h 55 % 0.0 mm 673.0 W/m2 CLR
13:22 25.6 °C 15.6 °C 1023.6 hPa West 11.1 km/h 11.1 km/h 54 % 0.0 mm 675.0 W/m2 CLR
13:27 25.6 °C 15.6 °C 1023.2 hPa NW 7.4 km/h 7.4 km/h 54 % 0.0 mm 675.0 W/m2 CLR
13:32 25.6 °C 15.3 °C 1023.2 hPa West 9.3 km/h 9.3 km/h 53 % 0.0 mm 679.0 W/m2 CLR
13:37 25.6 °C 15.3 °C 1023.2 hPa West 9.3 km/h 9.3 km/h 53 % 0.0 mm 680.0 W/m2 CLR
13:42 26.1 °C 15.8 °C 1023.2 hPa West 16.7 km/h 16.7 km/h 53 % 0.0 mm 679.0 W/m2 CLR
13:47 25.6 °C 14.7 °C 1022.9 hPa WSW 14.8 km/h 14.8 km/h 51 % 0.0 mm 682.0 W/m2 CLR
13:52 26.1 °C 15.5 °C 1022.9 hPa WNW 7.4 km/h 7.4 km/h 52 % 0.0 mm 682.0 W/m2 CLR
13:57 26.7 °C 16.0 °C 1022.9 hPa West 18.5 km/h 18.5 km/h 52 % 0.0 mm 682.0 W/m2 CLR
14:02 26.1 °C 15.5 °C 1022.6 hPa NW 16.7 km/h 16.7 km/h 52 % 0.0 mm 682.0 W/m2 CLR
14:07 26.1 °C 14.9 °C 1022.6 hPa WSW 14.5 km/h 14.5 km/h 50 % 0.0 mm 682.0 W/m2 CLR
14:12 26.1 °C 14.6 °C 1022.6 hPa West 18.5 km/h 18.5 km/h 49 % 0.0 mm 680.0 W/m2 CLR
14:17 26.7 °C 15.1 °C 1022.6 hPa West 14.8 km/h 14.8 km/h 49 % 0.0 mm 677.0 W/m2 CLR
14:22 27.2 °C 15.6 °C 1022.2 hPa SW 13.0 km/h 13.0 km/h 49 % 0.0 mm 675.0 W/m2 CLR
14:27 27.2 °C 15.6 °C 1022.2 hPa WNW 11.1 km/h 11.1 km/h 49 % 0.0 mm 671.0 W/m2 CLR
14:32 26.7 °C 15.1 °C 1022.2 hPa WSW 13.0 km/h 13.0 km/h 49 % 0.0 mm 668.0 W/m2 CLR
14:37 26.7 °C 15.1 °C 1022.2 hPa West 14.8 km/h 14.8 km/h 49 % 0.0 mm 663.0 W/m2 CLR
14:42 26.7 °C 14.7 °C 1021.9 hPa WNW 16.7 km/h 16.7 km/h 48 % 0.0 mm 659.0 W/m2 CLR
14:47 26.7 °C 14.7 °C 1021.9 hPa West 9.7 km/h 9.7 km/h 48 % 0.0 mm 656.0 W/m2 CLR
14:57 27.2 °C 14.9 °C 1021.9 hPa SW 11.1 km/h 11.1 km/h 47 % 0.0 mm 645.0 W/m2 CLR
15:02 26.7 °C 14.1 °C 1021.6 hPa WNW 16.7 km/h 16.7 km/h 46 % 0.0 mm 638.0 W/m2 CLR
15:07 26.7 °C 14.4 °C 1021.6 hPa WNW 8.0 km/h 8.0 km/h 47 % 0.0 mm 635.0 W/m2 CLR
15:12 27.2 °C 14.3 °C 1021.6 hPa WNW 24.1 km/h 24.1 km/h 45 % 0.0 mm 628.0 W/m2 CLR
15:18 27.2 °C 14.3 °C 1021.6 hPa West 1.9 km/h   45 % 0.0 mm 621.0 W/m2 CLR
15:23 27.2 °C 14.3 °C 1021.6 hPa West 16.7 km/h 16.7 km/h 45 % 0.0 mm 619.0 W/m2 CLR
15:28 27.2 °C 14.3 °C 1021.2 hPa WNW 11.1 km/h 11.1 km/h 45 % 0.0 mm 613.0 W/m2 CLR
15:33 27.2 °C 13.9 °C 1021.2 hPa NNW 3.7 km/h   44 % 0.0 mm 605.0 W/m2 CLR
15:38 27.2 °C 13.9 °C 1021.2 hPa SSW 13.0 km/h 13.0 km/h 44 % 0.0 mm 594.0 W/m2 CLR
15:43 27.8 °C 14.4 °C 1021.2 hPa Calm     44 % 0.0 mm 589.0 W/m2 CLR
15:48 27.8 °C 14.1 °C 1020.9 hPa West 12.9 km/h 12.9 km/h 43 % 0.0 mm 582.0 W/m2 CLR
15:53 28.3 °C 14.6 °C 1021.2 hPa West 1.6 km/h 1.6 km/h 43 % 0.0 mm 568.0 W/m2 CLR
15:58 28.3 °C 14.6 °C 1020.9 hPa West 13.0 km/h 13.0 km/h 43 % 0.0 mm 561.0 W/m2 CLR
16:03 27.8 °C 13.7 °C 1020.9 hPa WNW 11.3 km/h 11.3 km/h 42 % 0.0 mm 548.0 W/m2 CLR
16:08 27.8 °C 13.7 °C 1020.9 hPa WSW 16.7 km/h 16.7 km/h 42 % 0.0 mm 540.0 W/m2 CLR
16:13 28.3 °C 13.8 °C 1020.9 hPa SW 14.8 km/h 14.8 km/h 41 % 0.0 mm 529.0 W/m2 CLR
16:18 28.9 °C 14.7 °C 1020.9 hPa WSW 14.5 km/h 14.5 km/h 42 % 0.0 mm 515.0 W/m2 CLR
16:23 28.3 °C 14.2 °C 1020.5 hPa Calm     42 % 0.0 mm 501.0 W/m2 CLR
16:28 28.3 °C 13.8 °C 1020.5 hPa SW 6.4 km/h 6.4 km/h 41 % 0.0 mm 490.0 W/m2 CLR
16:33 28.3 °C 13.8 °C 1020.5 hPa WSW 7.4 km/h 7.4 km/h 41 % 0.0 mm 480.0 W/m2 CLR
16:38 28.3 °C 13.8 °C 1020.5 hPa West 13.0 km/h 13.0 km/h 41 % 0.0 mm 464.0 W/m2 CLR
16:48 27.8 °C 13.3 °C 1020.5 hPa West 12.9 km/h 12.9 km/h 41 % 0.0 mm 443.0 W/m2 CLR
16:53 27.8 °C 13.7 °C 1020.5 hPa WSW 14.5 km/h 14.5 km/h 42 % 0.0 mm 427.0 W/m2 CLR
16:58 28.3 °C 14.2 °C 1020.5 hPa SSW 6.4 km/h 6.4 km/h 42 % 0.0 mm 417.0 W/m2 CLR
17:03 28.3 °C 14.2 °C 1020.2 hPa WSW 16.7 km/h 16.7 km/h 42 % 0.0 mm 401.0 W/m2 CLR
17:08 27.8 °C 12.9 °C 1020.2 hPa WSW 11.1 km/h 11.1 km/h 40 % 0.0 mm 387.0 W/m2 CLR
17:13 27.8 °C 13.3 °C 1020.2 hPa WSW 11.1 km/h 11.1 km/h 41 % 0.0 mm 374.0 W/m2 CLR
17:18 27.8 °C 12.9 °C 1020.2 hPa WSW 16.1 km/h 16.1 km/h 40 % 0.0 mm 359.0 W/m2 CLR
17:23 27.8 °C 12.9 °C 1020.2 hPa West 9.3 km/h 9.3 km/h 40 % 0.0 mm 343.0 W/m2 CLR
17:28 27.8 °C 12.6 °C 1020.2 hPa West 16.7 km/h 16.7 km/h 39 % 0.0 mm 330.0 W/m2 CLR
17:33 28.3 °C 12.7 °C 1020.2 hPa West 9.3 km/h 9.3 km/h 38 % 0.0 mm 316.0 W/m2 CLR
17:38 28.3 °C 12.7 °C 1020.2 hPa West 9.7 km/h 9.7 km/h 38 % 0.0 mm 302.0 W/m2 CLR
17:43 27.8 °C 12.2 °C 1020.2 hPa West 14.8 km/h 14.8 km/h 38 % 0.0 mm 292.0 W/m2 CLR
17:53 27.8 °C 11.3 °C 1019.9 hPa WSW 18.5 km/h 18.5 km/h 36 % 0.0 mm 257.0 W/m2 CLR
17:58 27.2 °C 11.3 °C 1019.9 hPa West 14.8 km/h 14.8 km/h 37 % 0.0 mm 239.0 W/m2 CLR
18:03 27.2 °C 11.7 °C 1019.9 hPa Calm     38 % 0.0 mm 223.0 W/m2 CLR
18:08 27.2 °C 11.3 °C 1019.9 hPa Calm     37 % 0.0 mm 200.0 W/m2 CLR
18:13 26.7 °C 10.8 °C 1019.9 hPa SW 5.6 km/h   37 % 0.0 mm 185.0 W/m2 CLR
18:18 26.7 °C 10.3 °C 1019.9 hPa WSW 11.3 km/h 11.3 km/h 36 % 0.0 mm 167.0 W/m2 CLR
18:23 26.7 °C 10.3 °C 1019.9 hPa SW 9.3 km/h 9.3 km/h 36 % 0.0 mm 151.0 W/m2 CLR
18:28 26.7 °C 10.3 °C 1019.9 hPa West 9.3 km/h 9.3 km/h 36 % 0.0 mm 134.0 W/m2 CLR
18:33 26.7 °C 9.9 °C 1019.9 hPa WSW 20.4 km/h 20.4 km/h 35 % 0.0 mm 114.0 W/m2 CLR
18:38 26.7 °C 10.3 °C 1019.9 hPa WSW 14.8 km/h 14.8 km/h 36 % 0.0 mm 97.0 W/m2 CLR
18:43 26.7 °C 10.3 °C 1019.9 hPa Calm     36 % 0.0 mm 83.0 W/m2 CLR
18:49 26.1 °C 9.9 °C 1019.9 hPa WSW 12.9 km/h 12.9 km/h 36 % 0.0 mm 62.0 W/m2 SCT
18:54 25.6 °C 9.4 °C 1019.9 hPa WSW 9.3 km/h   36 % 0.0 mm 53.0 W/m2 SCT
18:59 25.0 °C 8.9 °C 1019.9 hPa West 16.7 km/h 16.7 km/h 36 % 0.0 mm 42.0 W/m2 SCT
19:04 24.4 °C 8.4 °C 1019.9 hPa WSW 11.3 km/h 11.3 km/h 36 % 0.0 mm 32.0 W/m2 BKN
19:09 24.4 °C 8.4 °C 1019.9 hPa SW 16.7 km/h 16.7 km/h 36 % 0.0 mm 23.0 W/m2 BKN
19:14 24.4 °C 8.4 °C 1019.9 hPa WSW 5.6 km/h 5.6 km/h 36 % 0.0 mm 16.0 W/m2 BKN
19:19 23.9 °C 8.3 °C 1019.9 hPa WSW 5.6 km/h 5.6 km/h 37 % 0.0 mm 12.0 W/m2 BKN
19:24 23.9 °C 8.7 °C 1020.2 hPa WSW 9.3 km/h 9.3 km/h 38 % 0.0 mm 11.0 W/m2 BKN
19:29 23.3 °C 8.6 °C 1020.2 hPa Calm     39 % 0.0 mm 7.0 W/m2 BKN
19:34 22.2 °C 7.6 °C 1020.2 hPa Calm     39 % 0.0 mm 5.0 W/m2 OVC
19:44 20.6 °C 6.8 °C 1019.9 hPa Calm     41 % 0.0 mm 0.0 W/m2 OVC
19:49 20.6 °C 7.2 °C 1019.9 hPa Calm     42 % 0.0 mm 0.0 W/m2 CLR
19:54 20.0 °C 7.1 °C 1019.9 hPa Calm     43 % 0.0 mm 0.0 W/m2 CLR
19:59 20.0 °C 7.4 °C 1020.2 hPa Calm     44 % 0.0 mm 0.0 W/m2 CLR
20:04 20.0 °C 7.4 °C 1020.2 hPa Calm     44 % 0.0 mm 0.0 W/m2 CLR
20:09 20.0 °C 7.4 °C 1019.9 hPa Calm     44 % 0.0 mm 0.0 W/m2 CLR
20:14 20.0 °C 7.7 °C 1020.2 hPa Calm   0.2 km/h 45 % 0.0 mm 0.0 W/m2 CLR
20:19 20.0 °C 7.7 °C 1020.2 hPa Calm     45 % 0.0 mm 0.0 W/m2 CLR
20:24 20.0 °C 7.7 °C 1020.2 hPa Calm     45 % 0.0 mm 0.0 W/m2 CLR
20:29 20.0 °C 7.7 °C 1020.2 hPa Calm     45 % 0.0 mm 0.0 W/m2 CLR
20:34 20.0 °C 8.0 °C 1020.2 hPa Calm     46 % 0.0 mm 0.0 W/m2 CLR
20:39 20.0 °C 8.3 °C 1020.2 hPa Calm     47 % 0.0 mm 0.0 W/m2 CLR
20:44 19.4 °C 8.2 °C 1020.2 hPa Calm     48 % 0.0 mm 0.0 W/m2 CLR
20:49 19.4 °C 8.4 °C 1020.5 hPa Calm     49 % 0.0 mm 0.0 W/m2 CLR
20:54 19.4 °C 8.4 °C 1020.5 hPa SSW 5.6 km/h 5.6 km/h 49 % 0.0 mm 0.0 W/m2 CLR
20:59 19.4 °C 8.4 °C 1020.5 hPa SSW 1.6 km/h 1.6 km/h 49 % 0.0 mm 0.0 W/m2 CLR
21:04 19.4 °C 9.3 °C 1020.5 hPa Calm     52 % 0.0 mm 0.0 W/m2 CLR
21:14 18.9 °C 9.1 °C 1020.9 hPa SW 14.8 km/h 14.8 km/h 53 % 0.0 mm 0.0 W/m2 CLR
21:24 18.9 °C 9.1 °C 1020.9 hPa WSW 14.8 km/h 14.8 km/h 53 % 0.0 mm 0.0 W/m2 CLR
21:29 18.9 °C 9.4 °C 1020.9 hPa WSW 25.9 km/h 25.9 km/h 54 % 0.0 mm 0.0 W/m2 CLR
21:34 20.0 °C 10.4 °C 1020.9 hPa WSW 22.2 km/h 22.2 km/h 54 % 0.0 mm 0.0 W/m2 CLR
21:39 21.7 °C 11.9 °C 1020.9 hPa SW 27.8 km/h 27.8 km/h 54 % 0.0 mm 0.0 W/m2 CLR
21:44 22.2 °C 12.7 °C 1020.9 hPa SW 22.2 km/h 22.2 km/h 55 % 0.0 mm 0.0 W/m2 CLR
21:49 22.2 °C 12.7 °C 1021.2 hPa SW 18.5 km/h 18.5 km/h 55 % 0.0 mm 0.0 W/m2 CLR
21:54 22.2 °C 13.0 °C 1021.2 hPa SW 18.5 km/h 18.5 km/h 56 % 0.0 mm 0.0 W/m2 CLR
21:59 22.2 °C 13.3 °C 1021.2 hPa SW 25.9 km/h 25.9 km/h 57 % 0.0 mm 0.0 W/m2 CLR
22:04 22.2 °C 13.6 °C 1021.2 hPa WSW 33.3 km/h 33.3 km/h 58 % 0.0 mm 0.0 W/m2 CLR
22:09 22.2 °C 13.6 °C 1021.2 hPa WSW 42.6 km/h 42.6 km/h 58 % 0.0 mm 0.0 W/m2 CLR
22:14 22.2 °C 13.6 °C 1021.2 hPa WSW 33.3 km/h 33.3 km/h 58 % 0.0 mm 0.0 W/m2 CLR
22:19 22.2 °C 13.6 °C 1021.2 hPa SW 31.5 km/h 31.5 km/h 58 % 0.0 mm 0.0 W/m2 CLR
22:29 22.2 °C 13.6 °C 1021.2 hPa SW 29.6 km/h 29.6 km/h 58 % 0.0 mm 0.0 W/m2 CLR
22:39 21.7 °C 13.1 °C 1021.6 hPa WSW 25.9 km/h 25.9 km/h 58 % 0.0 mm 0.0 W/m2 CLR
22:44 21.7 °C 13.3 °C 1021.6 hPa WSW 22.2 km/h 22.2 km/h 59 % 0.0 mm 0.0 W/m2 CLR
22:49 21.1 °C 12.8 °C 1021.6 hPa SW 31.5 km/h 31.5 km/h 59 % 0.0 mm 0.0 W/m2 CLR
22:54 21.1 °C 13.1 °C 1021.6 hPa SW 27.8 km/h 27.8 km/h 60 % 0.0 mm 0.0 W/m2 CLR
22:59 21.1 °C 13.3 °C 1021.6 hPa SW 27.8 km/h 27.8 km/h 61 % 0.0 mm 0.0 W/m2 CLR
23:04 21.1 °C 13.3 °C 1021.6 hPa SSW 22.2 km/h 22.2 km/h 61 % 0.0 mm 0.0 W/m2 CLR
23:09 21.1 °C 13.3 °C 1021.6 hPa SSW 20.4 km/h 20.4 km/h 61 % 0.0 mm 0.0 W/m2 CLR
23:14 21.1 °C 13.1 °C 1021.6 hPa SSW 24.1 km/h 24.1 km/h 60 % 0.0 mm 0.0 W/m2 CLR
23:19 21.1 °C 13.1 °C 1021.6 hPa SSW 29.6 km/h 29.6 km/h 60 % 0.0 mm 0.0 W/m2 CLR
23:24 20.6 °C 12.5 °C 1021.9 hPa SSW 20.4 km/h 20.4 km/h 60 % 0.0 mm 0.0 W/m2 CLR
23:29 20.6 °C 12.5 °C 1021.9 hPa SSW 29.6 km/h 29.6 km/h 60 % 0.0 mm 0.0 W/m2 CLR
23:39 20.6 °C 12.5 °C 1021.6 hPa SSW 27.8 km/h 27.8 km/h 60 % 0.0 mm 0.0 W/m2 CLR
23:44 20.6 °C 12.8 °C 1021.6 hPa SSW 27.8 km/h 27.8 km/h 61 % 0.0 mm 0.0 W/m2 CLR
23:49 20.0 °C 12.2 °C 1021.6 hPa SSW 31.5 km/h 31.5 km/h 61 % 0.0 mm 0.0 W/m2 CLR
23:54 20.0 °C 12.2 °C 1021.6 hPa SSW 27.8 km/h 27.8 km/h 61 % 0.0 mm 0.0 W/m2 CLR
23:55 20.0 °C 12.2 °C 1021.6 hPa SSW 27.8 km/h 27.8 km/h 61 % 0.0 mm 0.0 W/m2 CLR
Lo Temps de Massalio
Compliments of Weather Underground - 1.25 mb